createdAt,value
2018-10-11T00:00:20.213Z,0
2018-10-11T00:01:20.752Z,0
2018-10-11T00:02:35.185Z,0
2018-10-11T00:03:20.529Z,0
2018-10-11T00:04:20.556Z,0
2018-10-11T00:05:20.832Z,0
2018-10-11T00:06:35.525Z,0
2018-10-11T00:07:20.873Z,0
2018-10-11T00:08:50.219Z,0
2018-10-11T00:09:20.662Z,0
2018-10-11T00:11:20.746Z,0
2018-10-11T00:12:20.723Z,0
2018-10-11T00:13:21.002Z,0
2018-10-11T00:14:21.028Z,0
2018-10-11T00:15:20.787Z,0
2018-10-11T00:16:20.805Z,0
2018-10-11T00:17:21.087Z,0
2018-10-11T00:18:35.514Z,0
2018-10-11T00:19:21.129Z,0
2018-10-11T00:20:21.154Z,0
2018-10-11T00:21:21.168Z,0
2018-10-11T00:22:20.676Z,0
2018-10-11T00:23:20.956Z,0
2018-10-11T00:24:35.893Z,0
2018-10-11T00:25:21.259Z,0
2018-10-11T00:27:21.039Z,0
2018-10-11T00:28:21.314Z,0
2018-10-11T00:29:21.083Z,0
2018-10-11T00:31:21.120Z,0
2018-10-11T00:32:21.403Z,0
2018-10-11T00:33:21.425Z,0
2018-10-11T00:34:35.845Z,0
2018-10-11T00:35:21.205Z,0
2018-10-11T00:36:21.257Z,0
2018-10-11T00:37:21.258Z,0
2018-10-11T00:38:21.528Z,0
2018-10-11T00:39:21.543Z,0
2018-10-11T00:40:50.887Z,0
2018-10-11T00:41:36.249Z,0
2018-10-11T00:42:21.618Z,0
2018-10-11T00:43:36.286Z,0
2018-10-11T00:44:21.650Z,0
2018-10-11T00:45:21.676Z,0
2018-10-11T00:46:21.701Z,0
2018-10-11T00:47:36.371Z,0
2018-10-11T00:49:21.924Z,0
2018-10-11T00:50:21.772Z,0
2018-10-11T00:51:21.792Z,0
2018-10-11T00:52:21.816Z,0
2018-10-11T00:53:36.501Z,0
2018-10-11T00:54:36.264Z,0
2018-10-11T00:55:21.935Z,0
2018-10-11T00:56:36.302Z,0
2018-10-11T00:57:21.664Z,0
2018-10-11T00:58:21.681Z,0
2018-10-11T00:59:21.957Z,0
2018-10-11T01:00:22.082Z,0
2018-10-11T01:01:22.006Z,0
2018-10-11T01:02:36.692Z,0
2018-10-11T01:03:21.791Z,0
2018-10-11T01:04:21.815Z,0
2018-10-11T01:05:22.089Z,0
2018-10-11T01:06:22.120Z,0
2018-10-11T01:07:22.125Z,0
2018-10-11T01:08:22.145Z,0
2018-10-11T01:09:22.564Z,0
2018-10-11T01:10:21.946Z,0
2018-10-11T01:11:36.870Z,0
2018-10-11T01:12:36.889Z,0
2018-10-11T01:13:21.994Z,0
2018-10-11T01:14:22.013Z,0
2018-10-11T01:15:36.693Z,0
2018-10-11T01:16:36.978Z,0
2018-10-11T01:17:22.334Z,0
2018-10-11T01:18:22.098Z,0
2018-10-11T01:19:22.127Z,0
2018-10-11T01:20:37.101Z,0
2018-10-11T01:21:22.423Z,0
2018-10-11T01:22:22.180Z,0
2018-10-11T01:23:22.457Z,0
2018-10-11T01:24:22.494Z,0
2018-10-11T01:25:22.240Z,0
2018-10-11T01:26:22.105Z,0
2018-10-11T01:27:22.284Z,0
2018-10-11T01:28:37.221Z,0
2018-10-11T01:29:22.330Z,0
2018-10-11T01:30:22.353Z,0
2018-10-11T01:31:22.627Z,0
2018-10-11T01:32:22.643Z,0
2018-10-11T01:33:22.669Z,0
2018-10-11T01:34:22.685Z,0
2018-10-11T01:35:22.708Z,0
2018-10-11T01:36:22.472Z,0
2018-10-11T01:37:22.488Z,0
2018-10-11T01:38:22.769Z,0
2018-10-11T01:39:22.274Z,0
2018-10-11T01:40:22.808Z,0
2018-10-11T01:41:22.836Z,0
2018-10-11T01:42:22.849Z,0
2018-10-11T01:43:37.555Z,0
2018-10-11T01:45:22.916Z,0
2018-10-11T01:46:22.680Z,0
2018-10-11T01:47:22.973Z,0
2018-10-11T01:48:37.118Z,0
2018-10-11T01:49:37.657Z,0
2018-10-11T01:50:23.019Z,0
2018-10-11T01:51:23.056Z,0
2018-10-11T01:52:23.054Z,0
2018-10-11T01:53:23.077Z,0
2018-10-11T01:54:23.096Z,0
2018-10-11T01:55:23.129Z,0
2018-10-11T01:56:23.147Z,0
2018-10-11T01:57:22.921Z,0
2018-10-11T01:58:23.182Z,0
2018-10-11T02:00:23.319Z,0
2018-10-11T02:01:23.242Z,0
2018-10-11T02:02:37.661Z,0
2018-10-11T02:03:23.281Z,0
2018-10-11T02:04:23.307Z,0
2018-10-11T02:05:23.324Z,0
2018-10-11T02:06:23.084Z,0
2018-10-11T02:07:23.397Z,0
2018-10-11T02:08:23.126Z,0
2018-10-11T02:09:23.548Z,0
2018-10-11T02:10:23.431Z,0
2018-10-11T02:11:23.438Z,0
2018-10-11T02:13:38.164Z,0
2018-10-11T02:14:23.507Z,0
2018-10-11T02:15:38.185Z,0
2018-10-11T02:16:23.544Z,0
2018-10-11T02:17:37.969Z,0
2018-10-11T02:18:23.595Z,0
2018-10-11T02:19:23.615Z,0
2018-10-11T02:20:23.628Z,0
2018-10-11T02:21:23.653Z,0
2018-10-11T02:22:23.666Z,0
2018-10-11T02:23:23.687Z,0
2018-10-11T02:24:23.199Z,0
2018-10-11T02:25:23.731Z,0
2018-10-11T02:26:23.498Z,0
2018-10-11T02:27:23.782Z,0
2018-10-11T02:28:23.793Z,0
2018-10-11T02:29:38.475Z,0
2018-10-11T02:30:23.837Z,0
2018-10-11T02:31:38.514Z,0
2018-10-11T02:32:23.881Z,0
2018-10-11T02:33:23.381Z,0
2018-10-11T02:34:23.916Z,0
2018-10-11T02:35:23.685Z,0
2018-10-11T02:36:23.959Z,0
2018-10-11T02:37:23.974Z,0
2018-10-11T02:38:23.736Z,0
2018-10-11T02:39:24.120Z,0
2018-10-11T02:40:38.693Z,0
2018-10-11T02:41:24.049Z,0
2018-10-11T02:42:24.079Z,0
2018-10-11T02:43:24.105Z,0
2018-10-11T02:44:23.856Z,0
2018-10-11T02:45:24.133Z,0
2018-10-11T02:46:24.155Z,0
2018-10-11T02:47:38.835Z,0
2018-10-11T02:48:23.935Z,0
2018-10-11T02:49:24.219Z,0
2018-10-11T02:50:24.338Z,0
2018-10-11T02:51:24.256Z,0
2018-10-11T02:52:24.276Z,0
2018-10-11T02:53:24.315Z,0
2018-10-11T02:54:24.319Z,0
2018-10-11T02:55:39.007Z,0
2018-10-11T02:56:24.360Z,0
2018-10-11T02:57:24.378Z,0
2018-10-11T02:58:24.400Z,0
2018-10-11T02:59:24.423Z,0
2018-10-11T03:00:24.180Z,0
2018-10-11T03:02:24.485Z,0
2018-10-11T03:03:53.821Z,0
2018-10-11T03:04:24.518Z,0
2018-10-11T03:05:24.548Z,0
2018-10-11T03:07:24.580Z,0
2018-10-11T03:08:24.596Z,0
2018-10-11T03:09:24.367Z,0
2018-10-11T03:11:24.659Z,0
2018-10-11T03:12:24.423Z,0
2018-10-11T03:13:24.704Z,0
2018-10-11T03:14:39.123Z,0
2018-10-11T03:15:24.744Z,0
2018-10-11T03:16:24.503Z,0
2018-10-11T03:17:24.264Z,0
2018-10-11T03:18:39.465Z,0
2018-10-11T03:19:24.566Z,0
2018-10-11T03:20:24.582Z,0
2018-10-11T03:21:24.603Z,0
2018-10-11T03:22:24.882Z,0
2018-10-11T03:23:24.901Z,0
2018-10-11T03:24:25.214Z,0
2018-10-11T03:25:24.959Z,0
2018-10-11T03:26:39.625Z,0
2018-10-11T03:27:24.989Z,0
2018-10-11T03:28:25.009Z,0
2018-10-11T03:29:24.772Z,0
2018-10-11T03:30:25.065Z,0
2018-10-11T03:31:25.086Z,0
2018-10-11T03:32:25.095Z,0
2018-10-11T03:33:25.108Z,0
2018-10-11T03:34:25.125Z,0
2018-10-11T03:35:24.895Z,0
2018-10-11T03:36:24.904Z,0
2018-10-11T03:37:25.190Z,0
2018-10-11T03:38:24.690Z,0
2018-10-11T03:39:39.368Z,0
2018-10-11T03:40:24.991Z,0
2018-10-11T03:41:25.266Z,0
2018-10-11T03:42:25.290Z,0
2018-10-11T03:44:25.342Z,0
2018-10-11T03:45:25.345Z,0
2018-10-11T03:46:25.230Z,0
2018-10-11T03:47:25.126Z,0
2018-10-11T03:48:40.068Z,0
2018-10-11T03:49:25.473Z,0
2018-10-11T03:51:25.209Z,0
2018-10-11T03:52:24.968Z,0
2018-10-11T03:53:25.248Z,0
2018-10-11T03:54:25.524Z,0
2018-10-11T03:55:25.294Z,0
2018-10-11T03:56:25.565Z,0
2018-10-11T03:57:25.585Z,0
2018-10-11T03:58:25.350Z,0
2018-10-11T03:59:25.626Z,0
2018-10-11T04:00:40.305Z,0
2018-10-11T04:01:25.685Z,0
2018-10-11T04:02:25.694Z,0
2018-10-11T04:03:25.704Z,0
2018-10-11T04:04:25.731Z,0
2018-10-11T04:05:25.744Z,0
2018-10-11T04:06:40.422Z,0
2018-10-11T04:07:25.954Z,0
2018-10-11T04:09:25.829Z,0
2018-10-11T04:10:25.589Z,0
2018-10-11T04:11:25.624Z,0
2018-10-11T04:12:25.629Z,0
2018-10-11T04:13:25.746Z,0
2018-10-11T04:14:25.925Z,0
2018-10-11T04:15:25.748Z,0
2018-10-11T04:16:25.982Z,0
2018-10-11T04:17:25.986Z,0
2018-10-11T04:18:26.007Z,0
2018-10-11T04:19:26.036Z,0
2018-10-11T04:20:25.787Z,0
2018-10-11T04:21:25.807Z,0
2018-10-11T04:23:26.205Z,0
2018-10-11T04:25:25.895Z,0
2018-10-11T04:26:25.652Z,0
2018-10-11T04:27:26.194Z,0
2018-10-11T04:28:26.205Z,0
2018-10-11T04:29:25.968Z,0
2018-10-11T04:30:26.249Z,0
2018-10-11T04:31:26.011Z,0
2018-10-11T04:32:26.029Z,0
2018-10-11T04:33:26.048Z,0
2018-10-11T04:34:26.326Z,0
2018-10-11T04:35:26.401Z,0
2018-10-11T04:36:41.037Z,0
2018-10-11T04:37:26.129Z,0
2018-10-11T04:38:55.724Z,0
2018-10-11T04:39:26.162Z,0
2018-10-11T04:40:26.213Z,0
2018-10-11T04:41:40.865Z,0
2018-10-11T04:42:25.968Z,0
2018-10-11T04:43:26.634Z,0
2018-10-11T04:44:26.523Z,0
2018-10-11T04:45:26.284Z,4
2018-10-11T04:46:41.224Z,4
2018-10-11T04:47:26.584Z,0
2018-10-11T04:48:41.260Z,4
2018-10-11T04:49:26.621Z,4
2018-10-11T04:50:26.640Z,0
2018-10-11T04:51:26.668Z,4
2018-10-11T04:52:41.343Z,4
2018-10-11T04:53:41.729Z,4
2018-10-11T04:54:41.380Z,4
2018-10-11T04:55:26.482Z,12
2018-10-11T04:56:26.758Z,8
2018-10-11T04:57:26.783Z,12
2018-10-11T04:58:26.805Z,12
2018-10-11T04:59:26.572Z,20
2018-10-11T05:00:26.587Z,24
2018-10-11T05:01:41.527Z,28
2018-10-11T05:02:26.669Z,32
2018-10-11T05:03:26.898Z,40
2018-10-11T05:04:26.916Z,44
2018-10-11T05:05:27.259Z,52
2018-10-11T05:06:26.696Z,56
2018-10-11T05:07:41.640Z,68
2018-10-11T05:08:27.000Z,76
2018-10-11T05:09:41.677Z,88
2018-10-11T05:10:26.777Z,100
2018-10-11T05:11:26.800Z,112
2018-10-11T05:12:41.839Z,132
2018-10-11T05:13:26.579Z,144
2018-10-11T05:16:27.156Z,196
2018-10-11T05:17:27.554Z,216
2018-10-11T05:18:26.936Z,240
2018-10-11T05:19:26.961Z,260
2018-10-11T05:20:27.238Z,284
2018-10-11T05:21:27.219Z,316
2018-10-11T05:22:27.359Z,344
2018-10-11T05:23:27.302Z,376
2018-10-11T05:24:27.054Z,408
2018-10-11T05:25:41.990Z,452
2018-10-11T05:26:27.453Z,480
2018-10-11T05:27:27.381Z,516
2018-10-11T05:28:27.395Z,556
2018-10-11T05:29:27.150Z,596
2018-10-11T05:30:27.173Z,636
2018-10-11T05:31:27.198Z,680
2018-10-11T05:33:27.496Z,768
2018-10-11T05:35:27.526Z,876
2018-10-11T05:36:27.546Z,932
2018-10-11T05:37:27.567Z,980
2018-10-11T05:38:42.426Z,1056
2018-10-11T05:39:42.271Z,1108
2018-10-11T05:40:27.643Z,1124
2018-10-11T05:41:42.308Z,1140
2018-10-11T05:42:27.670Z,1160
2018-10-11T05:43:27.689Z,1168
2018-10-11T05:44:28.151Z,1168
2018-10-11T05:46:27.752Z,1236
2018-10-11T05:47:27.507Z,1352
2018-10-11T05:48:27.794Z,1592
2018-10-11T05:49:27.815Z,1880
2018-10-11T05:50:42.396Z,1980
2018-10-11T05:51:27.847Z,1940
2018-10-11T05:52:27.862Z,1992
2018-10-11T05:53:27.888Z,2292
2018-10-11T05:54:27.903Z,2520
2018-10-11T05:55:27.933Z,2624
2018-10-11T05:56:27.717Z,2816
2018-10-11T05:57:42.623Z,3268
2018-10-11T05:58:28.081Z,4144
2018-10-11T05:59:28.004Z,8784
2018-10-11T06:00:28.176Z,13344
2018-10-11T06:01:28.056Z,14496
2018-10-11T06:02:28.063Z,15136
2018-10-11T06:03:28.089Z,14016
2018-10-11T06:04:28.584Z,13632
2018-10-11T06:05:42.785Z,17024
2018-10-11T06:06:27.631Z,17888
2018-10-11T06:07:28.179Z,18496
2018-10-11T06:08:28.189Z,19040
2018-10-11T06:09:28.255Z,19776
2018-10-11T06:10:28.235Z,21312
2018-10-11T06:11:27.998Z,21376
2018-10-11T06:12:28.283Z,21856
2018-10-11T06:13:42.971Z,22272
2018-10-11T06:14:42.985Z,23680
2018-10-11T06:15:28.094Z,24448
2018-10-11T06:17:28.142Z,24768
2018-10-11T06:18:43.106Z,26368
2018-10-11T06:19:43.104Z,26720
2018-10-11T06:20:28.467Z,26176
2018-10-11T06:21:43.147Z,24416
2018-10-11T06:22:28.509Z,25440
2018-10-11T06:23:28.535Z,24096
2018-10-11T06:24:28.563Z,26784
2018-10-11T06:25:28.591Z,28224
2018-10-11T06:26:28.610Z,28256
2018-10-11T06:27:28.375Z,29248
2018-10-11T06:28:43.112Z,29408
2018-10-11T06:29:28.424Z,30080
2018-10-11T06:30:43.533Z,30144
2018-10-11T06:31:28.472Z,29952
2018-10-11T06:32:28.495Z,30624
2018-10-11T06:33:28.785Z,30048
2018-10-11T06:34:28.548Z,31072
2018-10-11T06:35:28.828Z,31616
2018-10-11T06:36:29.199Z,31200
2018-10-11T06:37:43.544Z,32416
2018-10-11T06:38:28.903Z,33344
2018-10-11T06:39:28.684Z,33632
2018-10-11T06:40:28.697Z,33280
2018-10-11T06:41:28.724Z,33536
2018-10-11T06:42:29.790Z,34688
2018-10-11T06:43:29.031Z,34816
2018-10-11T06:44:28.545Z,35712
2018-10-11T06:45:29.083Z,36672
2018-10-11T06:46:28.852Z,28512
2018-10-11T06:47:29.143Z,37248
2018-10-11T06:48:29.162Z,37984
2018-10-11T06:49:28.935Z,38784
2018-10-11T06:50:29.259Z,38368
2018-10-11T06:51:29.243Z,36704
2018-10-11T06:52:43.934Z,39264
2018-10-11T06:53:29.285Z,40608
2018-10-11T06:54:28.810Z,40576
2018-10-11T06:55:28.824Z,40224
2018-10-11T06:56:29.368Z,40032
2018-10-11T06:57:29.392Z,40032
2018-10-11T06:58:29.262Z,41184
2018-10-11T06:59:29.206Z,41120
2018-10-11T07:00:43.881Z,43040
2018-10-11T07:01:28.986Z,43424
2018-10-11T07:02:29.523Z,44160
2018-10-11T07:03:29.550Z,44064
2018-10-11T07:04:29.579Z,43552
2018-10-11T07:05:29.605Z,44064
2018-10-11T07:06:29.640Z,43680
2018-10-11T07:07:29.983Z,43424
2018-10-11T07:08:29.427Z,42912
2018-10-11T07:09:29.717Z,41280
2018-10-11T07:10:29.480Z,43104
2018-10-11T07:11:29.504Z,44448
2018-10-11T07:12:29.529Z,44512
2018-10-11T07:13:44.489Z,43584
2018-10-11T07:14:29.584Z,42816
2018-10-11T07:15:29.610Z,43488
2018-10-11T07:16:44.554Z,45152
2018-10-11T07:17:29.661Z,44448
2018-10-11T07:18:29.948Z,43968
2018-10-11T07:19:30.538Z,44416
2018-10-11T07:20:29.840Z,45568
2018-10-11T07:21:30.020Z,45344
2018-10-11T07:22:29.788Z,45184
2018-10-11T07:23:29.816Z,45216
2018-10-11T07:24:44.771Z,44224
2018-10-11T07:26:30.152Z,44448
2018-10-11T07:27:30.186Z,44288
2018-10-11T07:28:30.206Z,43232
2018-10-11T07:30:30.263Z,45792
2018-10-11T07:31:30.286Z,44800
2018-10-11T07:33:44.998Z,44736
2018-10-11T07:34:30.248Z,44768
2018-10-11T07:35:31.745Z,45600
2018-10-11T07:36:29.898Z,45696
2018-10-11T07:37:29.926Z,44928
2018-10-11T07:38:30.212Z,43616
2018-10-11T07:39:30.240Z,44384
2018-10-11T07:40:30.987Z,44736
2018-10-11T07:41:30.287Z,43648
2018-10-11T07:42:45.236Z,42944
2018-10-11T07:43:45.262Z,43136
2018-10-11T07:44:30.373Z,42592
2018-10-11T07:45:30.387Z,44416
2018-10-11T07:46:30.415Z,41888
2018-10-11T07:47:30.705Z,41376
2018-10-11T07:48:45.393Z,44608
2018-10-11T07:49:30.490Z,42432
2018-10-11T07:50:30.773Z,43360
2018-10-11T07:51:30.801Z,43616
2018-10-11T07:52:30.315Z,42144
2018-10-11T07:53:30.591Z,42688
2018-10-11T07:54:30.878Z,43392
2018-10-11T07:55:30.905Z,42944
2018-10-11T07:56:30.973Z,41728
2018-10-11T07:57:30.436Z,40480
2018-10-11T07:58:30.718Z,40224
2018-10-11T07:59:30.748Z,41312
2018-10-11T08:00:31.028Z,41216
2018-10-11T08:01:31.206Z,41056
2018-10-11T08:02:31.084Z,40288
2018-10-11T08:04:00.429Z,42048
2018-10-11T08:04:45.539Z,41408
2018-10-11T08:05:31.204Z,40032
2018-10-11T08:06:31.182Z,40320
2018-10-11T08:07:32.182Z,40000
2018-10-11T08:08:31.308Z,39904
2018-10-11T08:09:31.311Z,38720
2018-10-11T08:11:32.136Z,40800
2018-10-11T08:12:31.409Z,40064
2018-10-11T08:13:46.341Z,39744
2018-10-11T08:14:31.126Z,39136
2018-10-11T08:16:32.079Z,37440
2018-10-11T08:17:33.958Z,37696
2018-10-11T08:18:31.536Z,36928
2018-10-11T08:19:32.516Z,35584
2018-10-11T08:20:31.828Z,33440
2018-10-11T08:21:31.762Z,33632
2018-10-11T08:22:31.586Z,34368
2018-10-11T08:23:31.402Z,34176
2018-10-11T08:24:31.760Z,33792
2018-10-11T08:25:34.189Z,33024
2018-10-11T08:26:33.107Z,32896
2018-10-11T08:27:31.901Z,32512
2018-10-11T08:28:46.396Z,32768
2018-10-11T08:29:46.209Z,32160
2018-10-11T08:30:46.452Z,29888
2018-10-11T08:31:31.904Z,28832
2018-10-11T08:32:32.408Z,29024
2018-10-11T08:33:31.963Z,27872
2018-10-11T08:34:31.632Z,27296
2018-10-11T08:35:46.055Z,26784
2018-10-11T08:36:31.935Z,26048
2018-10-11T08:37:31.861Z,26496
2018-10-11T08:38:31.835Z,26432
2018-10-11T08:39:46.412Z,25888
2018-10-11T08:40:32.035Z,26848
2018-10-11T08:41:32.060Z,28480
2018-10-11T08:42:32.086Z,29728
2018-10-11T08:43:32.129Z,31360
2018-10-11T08:44:32.134Z,29504
2018-10-11T08:45:32.166Z,26208
2018-10-11T08:46:32.027Z,25120
2018-10-11T08:47:32.221Z,25984
2018-10-11T08:48:46.900Z,25056
2018-10-11T08:49:32.265Z,24288
2018-10-11T08:50:32.581Z,23488
2018-10-11T08:51:47.156Z,22720
2018-10-11T08:52:32.336Z,22464
2018-10-11T08:53:32.591Z,22304
2018-10-11T08:54:32.401Z,22496
2018-10-11T08:55:32.544Z,21728
2018-10-11T08:56:46.847Z,21856
2018-10-11T08:57:32.461Z,21824
2018-10-11T08:58:32.490Z,21152
2018-10-11T08:59:32.613Z,21120
2018-10-11T09:00:32.281Z,21248
2018-10-11T09:01:32.346Z,20544
2018-10-11T09:03:32.900Z,20160
2018-10-11T09:04:32.382Z,19968
2018-10-11T09:05:32.676Z,19520
2018-10-11T09:06:32.695Z,19392
2018-10-11T09:07:47.114Z,19264
2018-10-11T09:08:32.737Z,19040
2018-10-11T09:09:32.705Z,18528
2018-10-11T09:10:45.886Z,18752
2018-10-11T09:11:32.930Z,18752
2018-10-11T09:12:46.984Z,18464
2018-10-11T09:13:32.607Z,18336
2018-10-11T09:14:47.555Z,18208
2018-10-11T09:15:32.663Z,18016
2018-10-11T09:16:32.684Z,17952
2018-10-11T09:17:33.393Z,17728
2018-10-11T09:18:32.987Z,17440
2018-10-11T09:19:32.764Z,17376
2018-10-11T09:21:33.109Z,17120
2018-10-11T09:22:32.834Z,16864
2018-10-11T09:26:33.225Z,16300
2018-10-11T09:27:32.961Z,16204
2018-10-11T09:28:32.988Z,16100
2018-10-11T09:29:33.012Z,16024
2018-10-11T09:30:47.837Z,16000
2018-10-11T09:31:33.061Z,15944
2018-10-11T09:33:33.308Z,16012
2018-10-11T09:34:33.398Z,15828
2018-10-11T09:35:33.170Z,15856
2018-10-11T09:36:33.987Z,15980
2018-10-11T09:37:32.699Z,15936
2018-10-11T09:38:47.908Z,15832
2018-10-11T09:39:33.009Z,15896
2018-10-11T09:40:33.557Z,15824
2018-10-11T09:41:33.585Z,15484
2018-10-11T09:42:33.344Z,15340
2018-10-11T09:43:33.384Z,15468
2018-10-11T09:44:33.662Z,15404
2018-10-11T09:45:33.699Z,15100
2018-10-11T09:46:33.707Z,15116
2018-10-11T09:47:33.470Z,15084
2018-10-11T09:48:33.259Z,14964
2018-10-11T09:49:33.264Z,14836
2018-10-11T09:50:33.811Z,14576
2018-10-11T09:51:33.579Z,14516
2018-10-11T09:52:33.340Z,14496
2018-10-11T09:53:33.881Z,14400
2018-10-11T09:54:34.203Z,14340
2018-10-11T09:55:33.934Z,14168
2018-10-11T09:56:33.447Z,14128
2018-10-11T09:57:34.033Z,14016
2018-10-11T09:58:34.013Z,14016
2018-10-11T09:59:33.782Z,13924
2018-10-11T10:00:33.845Z,13736
2018-10-11T10:01:33.838Z,13616
2018-10-11T10:02:48.773Z,13508
2018-10-11T10:03:33.624Z,13456
2018-10-11T10:04:33.644Z,13264
2018-10-11T10:05:33.930Z,13088
2018-10-11T10:06:34.216Z,12812
2018-10-11T10:07:48.904Z,12512
2018-10-11T10:08:34.011Z,12456
2018-10-11T10:09:34.039Z,12368
2018-10-11T10:10:48.716Z,12128
2018-10-11T10:11:34.352Z,12084
2018-10-11T10:12:34.108Z,11868
2018-10-11T10:13:49.050Z,11228
2018-10-11T10:14:34.419Z,10808
2018-10-11T10:15:34.612Z,10308
2018-10-11T10:16:34.223Z,9816
2018-10-11T10:17:34.490Z,9400
2018-10-11T10:18:49.180Z,8944
2018-10-11T10:19:34.541Z,8696
2018-10-11T10:20:34.050Z,8372
2018-10-11T10:21:34.280Z,8020
2018-10-11T10:22:34.619Z,7720
2018-10-11T10:23:34.641Z,7492
2018-10-11T10:24:34.512Z,7236
2018-10-11T10:25:34.177Z,7012
2018-10-11T10:26:49.215Z,6784
2018-10-11T10:27:34.374Z,6640
2018-10-11T10:28:34.254Z,6452
2018-10-11T10:29:34.542Z,6240
2018-10-11T10:30:34.817Z,6088
2018-10-11T10:31:34.324Z,5952
2018-10-11T10:32:34.864Z,5840
2018-10-11T10:33:49.637Z,5700
2018-10-11T10:34:49.579Z,5604
2018-10-11T10:35:34.947Z,5548
2018-10-11T10:36:34.969Z,5472
2018-10-11T10:37:34.988Z,5408
2018-10-11T10:38:34.756Z,5328
2018-10-11T10:39:35.045Z,5260
2018-10-11T10:40:35.076Z,5220
2018-10-11T10:41:35.099Z,5184
2018-10-11T10:42:49.774Z,5144
2018-10-11T10:43:49.801Z,5104
2018-10-11T10:44:34.650Z,5072
2018-10-11T10:45:35.242Z,5028
2018-10-11T10:46:49.871Z,4988
2018-10-11T10:47:34.978Z,4968
2018-10-11T10:48:35.274Z,4972
2018-10-11T10:49:49.952Z,4988
2018-10-11T10:50:35.310Z,4992
2018-10-11T10:51:35.335Z,4992
2018-10-11T10:52:35.376Z,4964
2018-10-11T10:53:49.797Z,4940
2018-10-11T10:54:35.423Z,4936
2018-10-11T10:55:35.661Z,4932
2018-10-11T10:56:35.478Z,4932
2018-10-11T10:57:35.500Z,4916
2018-10-11T10:58:49.910Z,4912
2018-10-11T10:59:35.540Z,4920
2018-10-11T11:00:35.557Z,4916
2018-10-11T11:01:35.582Z,4920
2018-10-11T11:02:35.097Z,4920
2018-10-11T11:03:50.296Z,4912
2018-10-11T11:04:50.061Z,4920
2018-10-11T11:05:35.679Z,4916
2018-10-11T11:06:35.449Z,4916
2018-10-11T11:07:35.937Z,4912
2018-10-11T11:08:35.766Z,4916
2018-10-11T11:10:35.803Z,4904
2018-10-11T11:11:35.826Z,4892
2018-10-11T11:12:35.857Z,4900
2018-10-11T11:13:50.541Z,4900
2018-10-11T11:14:35.902Z,4900
2018-10-11T11:15:50.330Z,4896
2018-10-11T11:16:35.950Z,4900
2018-10-11T11:17:35.718Z,4896
2018-10-11T11:18:35.749Z,4896
2018-10-11T11:19:35.770Z,4916
2018-10-11T11:20:36.048Z,4916
2018-10-11T11:21:36.077Z,4916
2018-10-11T11:23:36.121Z,4896
2018-10-11T11:24:36.150Z,4884
2018-10-11T11:25:36.183Z,4856
2018-10-11T11:26:36.049Z,4856
2018-10-11T11:27:36.223Z,4848
2018-10-11T11:28:35.987Z,4840
2018-10-11T11:29:36.270Z,4856
2018-10-11T11:30:35.778Z,4864
2018-10-11T11:31:36.323Z,4880
2018-10-11T11:32:35.825Z,4880
2018-10-11T11:33:50.820Z,4872
2018-10-11T11:34:36.144Z,4852
2018-10-11T11:35:36.429Z,4864
2018-10-11T11:36:36.204Z,4892
2018-10-11T11:37:36.479Z,4884
2018-10-11T11:38:36.498Z,4892
2018-10-11T11:39:36.523Z,4904
2018-10-11T11:40:36.543Z,4908
2018-10-11T11:41:36.313Z,4916
2018-10-11T11:42:36.596Z,4924
2018-10-11T11:43:36.623Z,4916
2018-10-11T11:44:36.646Z,4896
2018-10-11T11:45:51.556Z,4900
2018-10-11T11:47:36.716Z,4908
2018-10-11T11:48:36.483Z,4916
2018-10-11T11:49:36.759Z,4888
2018-10-11T11:50:36.517Z,4892
2018-10-11T11:51:36.553Z,4872
2018-10-11T11:52:36.580Z,4884
2018-10-11T11:53:36.802Z,4884
2018-10-11T11:54:37.106Z,4892
2018-10-11T11:55:36.926Z,4900
2018-10-11T11:56:36.936Z,4916
2018-10-11T11:58:36.984Z,4936
2018-10-11T11:59:36.232Z,4968
2018-10-11T12:00:51.693Z,4948
2018-10-11T12:01:51.716Z,4952
2018-10-11T12:02:37.386Z,4940
2018-10-11T12:03:37.100Z,4936
2018-10-11T12:04:51.531Z,4952
2018-10-11T12:05:36.903Z,4944
2018-10-11T12:06:36.965Z,4948
2018-10-11T12:07:36.948Z,4968
2018-10-11T12:08:51.887Z,4964
2018-10-11T12:09:36.999Z,4944
2018-10-11T12:11:37.047Z,4936
2018-10-11T12:12:37.075Z,4932
2018-10-11T12:13:52.014Z,4944
2018-10-11T12:14:37.127Z,4960
2018-10-11T12:15:37.140Z,4944
2018-10-11T12:16:37.629Z,4952
2018-10-11T12:17:52.107Z,4944
2018-10-11T12:19:37.505Z,4924
2018-10-11T12:20:52.180Z,4932
2018-10-11T12:21:37.291Z,4944
2018-10-11T12:22:51.721Z,4944
2018-10-11T12:23:37.598Z,4948
2018-10-11T12:24:37.621Z,4940
2018-10-11T12:25:37.650Z,4948
2018-10-11T12:26:52.336Z,4940
2018-10-11T12:27:37.694Z,4924
2018-10-11T12:29:37.743Z,4924
2018-10-11T12:30:37.769Z,4912
2018-10-11T12:31:37.798Z,4908
2018-10-11T12:32:37.560Z,4900
2018-10-11T12:33:52.503Z,4912
2018-10-11T12:34:37.878Z,4928
2018-10-11T12:35:37.901Z,4936
2018-10-11T12:36:52.843Z,4948
2018-10-11T12:37:38.059Z,4956
2018-10-11T12:38:38.144Z,4944
2018-10-11T12:40:52.675Z,4908
2018-10-11T12:41:37.781Z,4912
2018-10-11T12:42:37.765Z,4924
2018-10-11T12:43:37.568Z,4960
2018-10-11T12:44:37.594Z,5004
2018-10-11T12:45:38.578Z,5064
2018-10-11T12:46:42.289Z,5084
2018-10-11T12:47:38.187Z,5096
2018-10-11T12:49:07.579Z,5048
2018-10-11T12:49:50.714Z,5024
2018-10-11T12:50:38.262Z,5012
2018-10-11T12:51:38.411Z,5004
2018-10-11T12:52:38.058Z,4964
2018-10-11T12:53:53.004Z,4964
2018-10-11T12:54:38.369Z,4960
2018-10-11T12:55:37.870Z,4968
2018-10-11T12:56:38.880Z,4968
2018-10-11T12:57:38.934Z,4972
2018-10-11T12:58:38.458Z,4968
2018-10-11T12:59:38.234Z,4948
2018-10-11T13:00:38.538Z,4936
2018-10-11T13:01:38.532Z,4960
2018-10-11T13:02:38.759Z,4972
2018-10-11T13:03:53.244Z,4956
2018-10-11T13:04:38.608Z,4948
2018-10-11T13:05:38.639Z,4960
2018-10-11T13:06:38.138Z,4960
2018-10-11T13:08:38.708Z,4940
2018-10-11T13:09:53.136Z,4936
2018-10-11T13:10:38.801Z,4948
2018-10-11T13:11:53.440Z,4948
2018-10-11T13:12:38.801Z,4940
2018-10-11T13:13:38.832Z,4944
2018-10-11T13:14:38.345Z,4928
2018-10-11T13:15:38.815Z,4912
2018-10-11T13:16:38.910Z,4892
2018-10-11T13:17:42.817Z,4888
2018-10-11T13:18:38.962Z,4872
2018-10-11T13:19:38.980Z,4836
2018-10-11T13:20:53.680Z,4856
2018-10-11T13:21:39.025Z,4848
2018-10-11T13:22:38.801Z,4844
2018-10-11T13:23:53.757Z,4828
2018-10-11T13:24:41.755Z,4824
2018-10-11T13:25:39.129Z,4840
2018-10-11T13:26:39.231Z,4848
2018-10-11T13:27:39.173Z,4848
2018-10-11T13:28:38.993Z,4836
2018-10-11T13:29:53.890Z,4828
2018-10-11T13:30:39.262Z,4816
2018-10-11T13:31:39.271Z,4784
2018-10-11T13:32:39.298Z,4792
2018-10-11T13:33:39.067Z,4808
2018-10-11T13:34:54.329Z,4796
2018-10-11T13:35:39.148Z,4788
2018-10-11T13:36:54.066Z,4812
2018-10-11T13:37:53.826Z,4808
2018-10-11T13:38:39.445Z,4764
2018-10-11T13:39:39.781Z,4764
2018-10-11T13:40:39.928Z,4752
2018-10-11T13:41:39.945Z,4748
2018-10-11T13:42:39.333Z,4740
2018-10-11T13:43:38.800Z,4716
2018-10-11T13:44:39.440Z,4716
2018-10-11T13:45:39.374Z,4688
2018-10-11T13:46:39.391Z,4676
2018-10-11T13:49:39.716Z,4640
2018-10-11T13:50:39.743Z,4632
2018-10-11T13:51:39.257Z,4620
2018-10-11T13:52:54.636Z,4628
2018-10-11T13:53:39.577Z,4616
2018-10-11T13:54:39.585Z,4624
2018-10-11T13:55:39.610Z,4608
2018-10-11T13:56:39.892Z,4600
2018-10-11T13:57:39.658Z,4592
2018-10-11T13:58:40.052Z,4600
2018-10-11T13:59:39.720Z,4584
2018-10-11T14:00:39.749Z,4564
2018-10-11T14:01:39.860Z,4528
2018-10-11T14:02:54.699Z,4516
2018-10-11T14:03:54.468Z,4508
2018-10-11T14:04:39.721Z,4508
2018-10-11T14:05:40.120Z,4504
2018-10-11T14:06:39.885Z,4480
2018-10-11T14:07:39.908Z,4456
2018-10-11T14:08:54.861Z,4428
2018-10-11T14:09:39.957Z,4420
2018-10-11T14:10:40.729Z,4412
2018-10-11T14:11:39.753Z,4420
2018-10-11T14:12:40.291Z,4396
2018-10-11T14:13:40.063Z,4392
2018-10-11T14:14:40.337Z,4396
2018-10-11T14:15:40.369Z,4392
2018-10-11T14:16:40.390Z,4380
2018-10-11T14:17:39.970Z,4380
2018-10-11T14:18:40.443Z,4376
2018-10-11T14:19:40.477Z,4360
2018-10-11T14:20:40.495Z,4328
2018-10-11T14:21:40.523Z,4300
2018-10-11T14:22:40.280Z,4300
2018-10-11T14:23:55.508Z,4292